PDT,Max TemperatureF,Mean TemperatureF,Min TemperatureF,Max Dew PointF,MeanDew PointF,Min DewpointF,Max Humidity, Mean Humidity, Min Humidity, Max Sea Level PressureIn, Mean Sea Level PressureIn, Min Sea Level PressureIn, Max VisibilityMiles, Mean VisibilityMiles, Min VisibilityMiles, Max Wind SpeedMPH, Mean Wind SpeedMPH, Max Gust SpeedMPH,PrecipitationIn, CloudCover, Events, WindDirDegrees
2012-10-1,78,56,33,42,34,26,75,49,22,30.32,30.14,29.88,10,10,7,16,5,21,0.00,0,,173
2012-10-2,73,56,38,43,30,13,92,56,20,30.18,29.97,29.89,10,10,10,30,10,36,0.00,0,,295
2012-10-3,61,42,23,29,25,22,100,62,24,30.46,30.39,30.22,10,10,8,15,7,21,0.00,0,,38
2012-10-4,60,42,23,28,21,14,78,48,17,30.38,30.35,30.30,10,10,10,17,7,22,0.00,0,,33
2012-10-5,60,40,19,23,18,16,74,46,17,30.45,30.39,30.36,10,10,4,14,5,20,0.00,0,,23
2012-10-6,63,40,17,26,21,15,84,52,20,30.43,30.34,30.25,10,10,9,7,2,10,0.00,0,,296
2012-10-7,68,45,22,30,24,19,92,55,18,30.25,30.13,30.00,10,10,10,12,2,18,0.00,0,,188
2012-10-8,70,48,26,33,26,22,78,49,19,30.01,29.97,29.90,10,10,5,10,2,14,0.00,0,,161
2012-10-9,69,48,26,39,32,24,85,57,29,30.12,30.06,30.00,10,10,10,9,2,10,0.00,0,,124
2012-10-10,69,48,27,38,32,27,100,64,27,30.03,29.97,29.89,10,10,6,8,3,12,0.00,0,,49
2012-10-11,70,49,27,39,33,27,92,60,28,30.03,29.94,29.82,10,10,9,7,2,9,0.00,0,,81
2012-10-12,64,45,26,45,35,25,100,69,37,29.95,29.86,29.81,10,10,8,14,5,17,0.00,1,,173
2012-10-13,60,55,50,49,48,46,93,80,67,30.18,30.08,29.94,10,10,10,16,9,20,T,8,Rain,180
2012-10-14,65,58,51,53,50,47,96,74,52,30.17,30.05,29.91,10,10,10,20,9,24,0.04,7,Rain,180
2012-10-15,65,59,53,54,52,48,100,80,60,29.91,29.81,29.57,10,8,2,18,10,22,0.52,7,Rain,186
2012-10-16,61,47,32,56,38,24,82,62,41,30.06,29.71,29.42,10,10,10,31,16,39,0.00,4,,225
2012-10-17,54,39,24,33,30,26,100,68,35,30.33,30.25,30.09,10,10,10,13,3,23,0.00,1,,159
2012-10-18,60,45,29,35,32,28,100,67,33,30.32,30.16,29.86,10,10,10,8,3,12,0.00,1,,37
2012-10-19,62,50,38,50,44,36,100,80,60,29.86,29.74,29.60,10,10,7,24,11,31,0.02,4,Rain,193
2012-10-20,51,43,34,40,29,22,82,58,34,29.86,29.75,29.62,10,10,10,26,13,38,0.00,2,,204
2012-10-21,46,34,22,35,31,21,100,83,65,29.95,29.91,29.87,10,10,10,13,4,16,0.01,5,,37
2012-10-22,45,39,33,36,34,30,96,77,58,29.88,29.67,29.56,10,10,6,23,12,31,0.22,7,Rain,72
2012-10-23,44,36,28,37,33,28,100,85,70,30.01,29.84,29.66,10,7,1,12,3,15,0.06,7,Rain,174
2012-10-24,45,36,26,37,34,26,100,81,62,30.16,30.05,29.97,10,8,0,15,4,17,0.06,5,Fog-Rain,49
2012-10-25,44,39,34,38,36,34,100,88,76,30.46,30.31,30.12,10,10,2,8,3,10,0.07,8,Rain,138
2012-10-26,39,35,30,36,35,31,100,90,79,30.44,30.24,30.10,10,8,2,8,2,9,0.08,8,Rain,161
2012-10-27,42,40,37,41,39,36,100,95,89,30.11,30.01,29.87,10,5,2,10,3,15,0.23,8,Rain,167
2012-10-28,50,46,41,48,43,39,100,96,92,29.95,29.90,29.83,10,3,0,7,1,8,0.11,7,Fog-Rain,35
2012-10-29,63,54,44,54,45,42,100,76,52,30.03,29.88,29.81,10,6,1,22,6,29,0.33,7,Rain,126
2012-10-30,52,46,40,52,48,40,100,93,86,30.04,29.94,29.90,10,6,2,9,2,13,0.44,8,Rain,129
2012-10-31,58,53,48,51,50,48,100,89,77,29.93,29.82,29.73,10,9,2,16,7,22,0.05,4,Rain,25